Portada
METAR-TAF:

METAR-TAF

Aeroports :

Kashgar, Xina

latitud: 39-28N, longitud: 075-59E, altitud: 1291 m

Observació

L'informe es va fer fa 24 minuts, a les 19:00 UTC
Vent 2 kt del Oest
Temperatura 24°C
Humitat 22%
Pressió 1015 hPa
Visibilitat 10 km o més

METAR: ZWSH 011900Z AUTO 27001MPS 9999 // ////// 24/01 Q1015

Hora: 03:24 (19:24 UTC)

Pronòstic

L'informe es va fer fa 4 hores i 12 minuts, a les 15:12 UTC
Pronòstic vàlid del 01 a les 18 UTC al 02 a les 18 UTC
Vent 10 kt del Nord-Oest
Visibilitat: 6000 m
Escasses núvols a una alçada de 3300 ft, Cumulonimbus.
Evolucionant progressivament
l' 02 a les 04 UTC al 02 a les 05 UTC
Vent 8 kt del Est/Sud-Est

TAF: ZWSH 011512Z 0118/0218 32005MPS 6000 FEW033CB TX32/0209Z TN19/0200Z BECMG 0204/0205 12004MPS

Observacions i pronòstics meteorològics de més de 4000 aeroports (METAR i TAF).

Les estacions disponibles són els punts grocs i vermells al mapa.

Posi el ratolí al punt desitjat per veure el nom de l'estació.

Feu clic per veure les observacions i els pronòstics meteorològics.

Per canviar el mapa: feu clic els botons verds amb una creu de color negre per apropar; al botó verd amb un guió per allunyar la imatge; o en les fletxes verdes per a mapes adjacents.


METAR-TAF: